LAN901 SAEZ-SCEL
Flight info
| Callsign | LAN901 |
|---|---|
| Flight time | 1h 41m |
| Altitude | 40000 |
| Route | URINO1E URINO UL405 TOSOR UT687 UMKAL UMKAL7C |
| Aircraft | B772/H-SDE2E3FGHIJ5LORVWXY/LB1D1 |
Departure
| Time | 2026-05-07 04:27 |
|---|---|
| Airport | Ezeiza International Airport - Ministro Pistarini (SAEZ) |
Arrival
| Time | 2026-05-07 06:09 |
|---|---|
| Airport | Comodoro Arturo Merino Benítez International Airport (SCEL) |
| Time | Latitude | Longitude | Altitude | Speed | Heading |
|---|---|---|---|---|---|
| 2026-05-07 03:55 | -34.81249 | -58.53740 | 85 ft | 0 kts | 237° |
| 2026-05-07 04:15 | -34.81240 | -58.53724 | 98 ft | 2 kts | 238° |
| 2026-05-07 04:15 | -34.81234 | -58.53712 | 106 ft | 2 kts | 237° |
| 2026-05-07 04:16 | -34.81225 | -58.53696 | 75 ft | 2 kts | 237° |
| 2026-05-07 04:16 | -34.81213 | -58.53673 | 85 ft | 2 kts | 237° |
| 2026-05-07 04:16 | -34.81204 | -58.53656 | 85 ft | 2 kts | 237° |
| 2026-05-07 04:16 | -34.81198 | -58.53645 | 85 ft | 2 kts | 238° |
| 2026-05-07 04:17 | -34.81189 | -58.53628 | 86 ft | 2 kts | 238° |
| 2026-05-07 04:17 | -34.81180 | -58.53611 | 86 ft | 2 kts | 234° |
| 2026-05-07 04:17 | -34.81170 | -58.53595 | 86 ft | 2 kts | 225° |
| 2026-05-07 04:17 | -34.81158 | -58.53582 | 86 ft | 2 kts | 207° |
| 2026-05-07 04:18 | -34.81152 | -58.53579 | 86 ft | 0 kts | 196° |
| 2026-05-07 04:20 | -34.81156 | -58.53580 | 86 ft | 3 kts | 195° |
| 2026-05-07 04:20 | -34.81197 | -58.53587 | 74 ft | 9 kts | 185° |
| 2026-05-07 04:21 | -34.81393 | -58.53599 | 85 ft | 19 kts | 192° |
| 2026-05-07 04:21 | -34.81521 | -58.53659 | 81 ft | 20 kts | 208° |
| 2026-05-07 04:21 | -34.81615 | -58.53747 | 85 ft | 14 kts | 216° |
| 2026-05-07 04:21 | -34.81708 | -58.53739 | 85 ft | 15 kts | 160° |
| 2026-05-07 04:22 | -34.81808 | -58.53687 | 85 ft | 16 kts | 154° |
| 2026-05-07 04:22 | -34.81902 | -58.53601 | 84 ft | 18 kts | 122° |
| 2026-05-07 04:22 | -34.81940 | -58.53454 | 84 ft | 19 kts | 104° |
| 2026-05-07 04:22 | -34.81973 | -58.53292 | 83 ft | 20 kts | 103° |
| 2026-05-07 04:23 | -34.82004 | -58.53127 | 84 ft | 20 kts | 103° |
| 2026-05-07 04:23 | -34.82036 | -58.52966 | 86 ft | 20 kts | 104° |
| 2026-05-07 04:23 | -34.82073 | -58.52791 | 84 ft | 23 kts | 104° |
| 2026-05-07 04:23 | -34.82112 | -58.52594 | 82 ft | 25 kts | 103° |
| 2026-05-07 04:24 | -34.82153 | -58.52386 | 84 ft | 26 kts | 103° |
| 2026-05-07 04:24 | -34.82195 | -58.52174 | 84 ft | 26 kts | 104° |
| 2026-05-07 04:24 | -34.82238 | -58.51961 | 83 ft | 26 kts | 104° |
| 2026-05-07 04:24 | -34.82272 | -58.51814 | 85 ft | 11 kts | 124° |
| 2026-05-07 04:25 | -34.82322 | -58.51793 | 81 ft | 0 kts | 184° |
| 2026-05-07 04:25 | -34.82329 | -58.51793 | 85 ft | 5 kts | 184° |
| 2026-05-07 04:26 | -34.82403 | -58.51808 | 86 ft | 16 kts | 190° |
| 2026-05-07 04:26 | -34.82508 | -58.51880 | 91 ft | 22 kts | 243° |
| 2026-05-07 04:26 | -34.82508 | -58.51989 | 87 ft | 0 kts | 279° |
| 2026-05-07 04:27 | -34.82463 | -58.52225 | 84 ft | 82 kts | 282° |
| 2026-05-07 04:27 | -34.82269 | -58.53339 | 94 ft | 187 kts | 280° |
| 2026-05-07 04:27 | -34.81977 | -58.55097 | 757 ft | 228 kts | 282° |
| 2026-05-07 04:28 | -34.81642 | -58.57042 | 1912 ft | 244 kts | 283° |
| 2026-05-07 04:28 | -34.81376 | -58.59069 | 3043 ft | 237 kts | 279° |
| 2026-05-07 04:28 | -34.81169 | -58.61057 | 4036 ft | 239 kts | 277° |
| 2026-05-07 04:28 | -34.80965 | -58.63097 | 4840 ft | 246 kts | 277° |
| 2026-05-07 04:29 | -34.80756 | -58.65203 | 5474 ft | 252 kts | 278° |
| 2026-05-07 04:29 | -34.80542 | -58.67325 | 5644 ft | 255 kts | 278° |
| 2026-05-07 04:29 | -34.80323 | -58.69464 | 5659 ft | 254 kts | 278° |
| 2026-05-07 04:29 | -34.80106 | -58.71558 | 6006 ft | 250 kts | 278° |
| 2026-05-07 04:30 | -34.79884 | -58.73674 | 6752 ft | 255 kts | 278° |
| 2026-05-07 04:30 | -34.79656 | -58.75828 | 7536 ft | 260 kts | 278° |
| 2026-05-07 04:30 | -34.79421 | -58.78026 | 8384 ft | 263 kts | 278° |
| 2026-05-07 04:30 | -34.79182 | -58.80253 | 9240 ft | 267 kts | 278° |
| 2026-05-07 04:31 | -34.78938 | -58.82511 | 9997 ft | 273 kts | 279° |
| 2026-05-07 04:31 | -34.78677 | -58.84913 | 10247 ft | 300 kts | 279° |
| 2026-05-07 04:31 | -34.78392 | -58.87514 | 10494 ft | 326 kts | 279° |
| 2026-05-07 04:31 | -34.78086 | -58.90306 | 11215 ft | 338 kts | 279° |
| 2026-05-07 04:32 | -34.77773 | -58.93167 | 12153 ft | 343 kts | 279° |
| 2026-05-07 04:32 | -34.77457 | -58.96062 | 13254 ft | 346 kts | 279° |
| 2026-05-07 04:32 | -34.77136 | -58.98981 | 14208 ft | 351 kts | 279° |
| 2026-05-07 04:32 | -34.76810 | -59.01941 | 15189 ft | 354 kts | 280° |
| 2026-05-07 04:33 | -34.76481 | -59.04926 | 16210 ft | 358 kts | 280° |
| 2026-05-07 04:33 | -34.76146 | -59.07942 | 17207 ft | 362 kts | 280° |
| 2026-05-07 04:33 | -34.75807 | -59.10991 | 18155 ft | 367 kts | 280° |
| 2026-05-07 04:33 | -34.75462 | -59.14087 | 19055 ft | 370 kts | 280° |
| 2026-05-07 04:34 | -34.75114 | -59.17207 | 19999 ft | 373 kts | 280° |
| 2026-05-07 04:34 | -34.74767 | -59.20302 | 20927 ft | 376 kts | 280° |
| 2026-05-07 04:34 | -34.74413 | -59.23460 | 21846 ft | 379 kts | 280° |
| 2026-05-07 04:34 | -34.74054 | -59.26649 | 22735 ft | 383 kts | 280° |
| 2026-05-07 04:35 | -34.73690 | -59.29875 | 23551 ft | 387 kts | 280° |
| 2026-05-07 04:35 | -34.73322 | -59.33133 | 24297 ft | 389 kts | 280° |
| 2026-05-07 04:35 | -34.72952 | -59.36402 | 25041 ft | 392 kts | 279° |
| 2026-05-07 04:35 | -34.72578 | -59.39701 | 25748 ft | 394 kts | 279° |
| 2026-05-07 04:36 | -34.72200 | -59.43019 | 26413 ft | 397 kts | 279° |
| 2026-05-07 04:36 | -34.71820 | -59.46354 | 27050 ft | 400 kts | 279° |
| 2026-05-07 04:36 | -34.71436 | -59.49710 | 27671 ft | 402 kts | 279° |
| 2026-05-07 04:36 | -34.71053 | -59.53053 | 28269 ft | 405 kts | 279° |
| 2026-05-07 04:37 | -34.70662 | -59.56453 | 28843 ft | 407 kts | 279° |
| 2026-05-07 04:37 | -34.70268 | -59.59871 | 29404 ft | 409 kts | 279° |
| 2026-05-07 04:37 | -34.69871 | -59.63309 | 29901 ft | 412 kts | 279° |
| 2026-05-07 04:37 | -34.69472 | -59.66754 | 30315 ft | 414 kts | 279° |
| 2026-05-07 04:38 | -34.69068 | -59.70232 | 30707 ft | 416 kts | 279° |
| 2026-05-07 04:38 | -34.68661 | -59.73721 | 31061 ft | 418 kts | 279° |
| 2026-05-07 04:38 | -34.68251 | -59.77234 | 31419 ft | 420 kts | 279° |
| 2026-05-07 04:38 | -34.67839 | -59.80753 | 31749 ft | 421 kts | 279° |
| 2026-05-07 04:39 | -34.67424 | -59.84288 | 32045 ft | 423 kts | 279° |
| 2026-05-07 04:39 | -34.67007 | -59.87832 | 32353 ft | 424 kts | 279° |
| 2026-05-07 04:39 | -34.66594 | -59.91336 | 32750 ft | 423 kts | 279° |
| 2026-05-07 04:39 | -34.66178 | -59.94860 | 33224 ft | 420 kts | 279° |
| 2026-05-07 04:40 | -34.65763 | -59.98362 | 33703 ft | 417 kts | 279° |
| 2026-05-07 04:40 | -34.65349 | -60.01848 | 34108 ft | 415 kts | 279° |
| 2026-05-07 04:40 | -34.64936 | -60.05313 | 34505 ft | 413 kts | 279° |
| 2026-05-07 04:40 | -34.64525 | -60.08761 | 34906 ft | 411 kts | 279° |
| 2026-05-07 04:41 | -34.64114 | -60.12194 | 35296 ft | 410 kts | 279° |
| 2026-05-07 04:41 | -34.63702 | -60.15621 | 35681 ft | 408 kts | 279° |
| 2026-05-07 04:41 | -34.63298 | -60.18979 | 36074 ft | 406 kts | 279° |
| 2026-05-07 04:41 | -34.62889 | -60.22368 | 36454 ft | 404 kts | 279° |
| 2026-05-07 04:42 | -34.62483 | -60.25732 | 36817 ft | 403 kts | 279° |
| 2026-05-07 04:42 | -34.62075 | -60.29098 | 37162 ft | 401 kts | 279° |
| 2026-05-07 04:42 | -34.61669 | -60.32442 | 37556 ft | 399 kts | 279° |
| 2026-05-07 04:42 | -34.61263 | -60.35779 | 37887 ft | 398 kts | 279° |
| 2026-05-07 04:43 | -34.60858 | -60.39096 | 38213 ft | 397 kts | 279° |
| 2026-05-07 04:43 | -34.60452 | -60.42409 | 38489 ft | 396 kts | 279° |
| 2026-05-07 04:43 | -34.60047 | -60.45714 | 38702 ft | 396 kts | 279° |
| 2026-05-07 04:43 | -34.59640 | -60.49028 | 38902 ft | 397 kts | 279° |
| 2026-05-07 04:44 | -34.59232 | -60.52337 | 39093 ft | 397 kts | 279° |
| 2026-05-07 04:44 | -34.58822 | -60.55658 | 39311 ft | 397 kts | 279° |
| 2026-05-07 04:44 | -34.58413 | -60.58965 | 39523 ft | 397 kts | 279° |
| 2026-05-07 04:44 | -34.58005 | -60.62255 | 39579 ft | 400 kts | 279° |
| 2026-05-07 04:45 | -34.57176 | -60.68922 | 39642 ft | 398 kts | 279° |
| 2026-05-07 04:45 | -34.56351 | -60.75525 | 39659 ft | 394 kts | 279° |
| 2026-05-07 04:46 | -34.55529 | -60.82073 | 39655 ft | 392 kts | 279° |
| 2026-05-07 04:46 | -34.54707 | -60.88600 | 39662 ft | 391 kts | 279° |
| 2026-05-07 04:47 | -34.53864 | -60.95133 | 39659 ft | 392 kts | 280° |
| 2026-05-07 04:47 | -34.52871 | -61.01625 | 39665 ft | 392 kts | 281° |
| 2026-05-07 04:48 | -34.51844 | -61.08112 | 39655 ft | 392 kts | 281° |
| 2026-05-07 04:48 | -34.50829 | -61.14597 | 39670 ft | 396 kts | 280° |
| 2026-05-07 04:49 | -34.49800 | -61.21202 | 39666 ft | 401 kts | 280° |
| 2026-05-07 04:49 | -34.48760 | -61.27871 | 39672 ft | 403 kts | 280° |
| 2026-05-07 04:50 | -34.47712 | -61.34564 | 39666 ft | 405 kts | 280° |
| 2026-05-07 04:50 | -34.46656 | -61.41280 | 39673 ft | 405 kts | 280° |
| 2026-05-07 04:51 | -34.45606 | -61.47940 | 39665 ft | 404 kts | 280° |
| 2026-05-07 04:51 | -34.44547 | -61.54627 | 39675 ft | 403 kts | 281° |
| 2026-05-07 04:52 | -34.43478 | -61.61286 | 39678 ft | 402 kts | 281° |
| 2026-05-07 04:52 | -34.42407 | -61.67914 | 39680 ft | 400 kts | 281° |
| 2026-05-07 04:53 | -34.41336 | -61.74526 | 39674 ft | 399 kts | 281° |
| 2026-05-07 04:53 | -34.40272 | -61.81075 | 39689 ft | 398 kts | 281° |
| 2026-05-07 04:54 | -34.39202 | -61.87642 | 39680 ft | 397 kts | 281° |
| 2026-05-07 04:54 | -34.38131 | -61.94207 | 40095 ft | 400 kts | 285° |
| 2026-05-07 04:55 | -34.37582 | -61.97547 | 39923 ft | 408 kts | 285° |
| 2026-05-07 04:55 | -34.37022 | -62.00941 | 39840 ft | 413 kts | 285° |
| 2026-05-07 04:55 | -34.35889 | -62.07827 | 39748 ft | 421 kts | 285° |
| 2026-05-07 04:56 | -34.34734 | -62.14825 | 39712 ft | 425 kts | 285° |
| 2026-05-07 04:56 | -34.33580 | -62.21806 | 39709 ft | 427 kts | 285° |
| 2026-05-07 04:57 | -34.32412 | -62.28853 | 39717 ft | 427 kts | 285° |
| 2026-05-07 04:57 | -34.31239 | -62.35911 | 39716 ft | 428 kts | 285° |
| 2026-05-07 04:58 | -34.30059 | -62.42974 | 39720 ft | 427 kts | 285° |
| 2026-05-07 04:58 | -34.28888 | -62.49967 | 39718 ft | 427 kts | 285° |
| 2026-05-07 04:59 | -34.27703 | -62.57008 | 39725 ft | 427 kts | 285° |
| 2026-05-07 04:59 | -34.26514 | -62.64053 | 39730 ft | 426 kts | 285° |
| 2026-05-07 05:00 | -34.25323 | -62.71078 | 39732 ft | 426 kts | 285° |
| 2026-05-07 05:00 | -34.24130 | -62.78095 | 39737 ft | 426 kts | 285° |
| 2026-05-07 05:01 | -34.22938 | -62.85073 | 39743 ft | 426 kts | 285° |
| 2026-05-07 05:01 | -34.21738 | -62.92081 | 39745 ft | 426 kts | 285° |
| 2026-05-07 05:02 | -34.20533 | -62.99087 | 39744 ft | 425 kts | 285° |
| 2026-05-07 05:02 | -34.19327 | -63.06080 | 39749 ft | 425 kts | 285° |
| 2026-05-07 05:03 | -34.18117 | -63.13066 | 39748 ft | 424 kts | 285° |
| 2026-05-07 05:03 | -34.17111 | -63.18861 | 39755 ft | 424 kts | 285° |
| 2026-05-07 05:04 | -34.15898 | -63.25821 | 39762 ft | 423 kts | 285° |
| 2026-05-07 05:04 | -34.14690 | -63.32735 | 39760 ft | 422 kts | 285° |
| 2026-05-07 05:05 | -34.13437 | -63.39663 | 39763 ft | 421 kts | 286° |
| 2026-05-07 05:05 | -34.12072 | -63.46546 | 39765 ft | 421 kts | 287° |
| 2026-05-07 05:06 | -34.10699 | -63.53418 | 39769 ft | 421 kts | 287° |
| 2026-05-07 05:06 | -34.09344 | -63.60244 | 39767 ft | 420 kts | 287° |
| 2026-05-07 05:07 | -34.07985 | -63.67105 | 39769 ft | 420 kts | 287° |
| 2026-05-07 05:07 | -34.06621 | -63.73970 | 39776 ft | 420 kts | 287° |
| 2026-05-07 05:08 | -34.05254 | -63.80826 | 39776 ft | 421 kts | 287° |
| 2026-05-07 05:08 | -34.03881 | -63.87693 | 39781 ft | 421 kts | 287° |
| 2026-05-07 05:09 | -34.02515 | -63.94540 | 39785 ft | 422 kts | 287° |
| 2026-05-07 05:09 | -34.01141 | -64.01421 | 39790 ft | 423 kts | 287° |
| 2026-05-07 05:10 | -33.99760 | -64.08321 | 39797 ft | 424 kts | 287° |
| 2026-05-07 05:10 | -33.98368 | -64.15250 | 39798 ft | 425 kts | 287° |
| 2026-05-07 05:11 | -33.96972 | -64.22176 | 39805 ft | 426 kts | 287° |
| 2026-05-07 05:11 | -33.95568 | -64.29120 | 39807 ft | 426 kts | 287° |
| 2026-05-07 05:12 | -33.94170 | -64.36017 | 39816 ft | 427 kts | 287° |
| 2026-05-07 05:12 | -33.92751 | -64.42996 | 39814 ft | 428 kts | 287° |
| 2026-05-07 05:13 | -33.91338 | -64.49924 | 39819 ft | 429 kts | 287° |
| 2026-05-07 05:13 | -33.90062 | -64.56954 | 39827 ft | 431 kts | 284° |
| 2026-05-07 05:14 | -33.88937 | -64.64063 | 39828 ft | 432 kts | 284° |
| 2026-05-07 05:14 | -33.87804 | -64.71176 | 39836 ft | 432 kts | 284° |
| 2026-05-07 05:15 | -33.86650 | -64.78243 | 39845 ft | 433 kts | 284° |
| 2026-05-07 05:15 | -33.85470 | -64.85364 | 39843 ft | 434 kts | 285° |
| 2026-05-07 05:16 | -33.84280 | -64.92499 | 39844 ft | 434 kts | 285° |
| 2026-05-07 05:16 | -33.83088 | -64.99627 | 39863 ft | 435 kts | 285° |
| 2026-05-07 05:17 | -33.81890 | -65.06758 | 39867 ft | 435 kts | 285° |
| 2026-05-07 05:17 | -33.80687 | -65.13902 | 39880 ft | 435 kts | 285° |
| 2026-05-07 05:18 | -33.79487 | -65.21000 | 39883 ft | 435 kts | 285° |
| 2026-05-07 05:18 | -33.78275 | -65.28141 | 39887 ft | 435 kts | 285° |
| 2026-05-07 05:19 | -33.77060 | -65.35275 | 39887 ft | 435 kts | 285° |
| 2026-05-07 05:19 | -33.75839 | -65.42417 | 39889 ft | 436 kts | 285° |
| 2026-05-07 05:20 | -33.74616 | -65.49545 | 39887 ft | 436 kts | 285° |
| 2026-05-07 05:20 | -33.73387 | -65.56677 | 39890 ft | 436 kts | 285° |
| 2026-05-07 05:21 | -33.71544 | -65.67334 | 39887 ft | 436 kts | 285° |
| 2026-05-07 05:22 | -33.70306 | -65.74459 | 39890 ft | 436 kts | 285° |
| 2026-05-07 05:22 | -33.69060 | -65.81599 | 39896 ft | 436 kts | 284° |
| 2026-05-07 05:23 | -33.67812 | -65.88733 | 39900 ft | 437 kts | 284° |
| 2026-05-07 05:23 | -33.66557 | -65.95876 | 39895 ft | 437 kts | 284° |
| 2026-05-07 05:24 | -33.65298 | -66.03022 | 39900 ft | 437 kts | 284° |
| 2026-05-07 05:24 | -33.64040 | -66.10129 | 39897 ft | 438 kts | 284° |
| 2026-05-07 05:25 | -33.62769 | -66.17290 | 39898 ft | 438 kts | 284° |
| 2026-05-07 05:25 | -33.61493 | -66.24451 | 39892 ft | 438 kts | 284° |
| 2026-05-07 05:26 | -33.60221 | -66.31567 | 39897 ft | 439 kts | 284° |
| 2026-05-07 05:26 | -33.58935 | -66.38737 | 39894 ft | 439 kts | 284° |
| 2026-05-07 05:27 | -33.57646 | -66.45898 | 39892 ft | 439 kts | 284° |
| 2026-05-07 05:27 | -33.56350 | -66.53069 | 39890 ft | 440 kts | 284° |
| 2026-05-07 05:28 | -33.55052 | -66.60230 | 39879 ft | 440 kts | 284° |
| 2026-05-07 05:28 | -33.53755 | -66.67357 | 39879 ft | 440 kts | 284° |
| 2026-05-07 05:29 | -33.52449 | -66.74516 | 39881 ft | 440 kts | 284° |
| 2026-05-07 05:29 | -33.51136 | -66.81682 | 39871 ft | 440 kts | 284° |
| 2026-05-07 05:30 | -33.49819 | -66.88847 | 39876 ft | 440 kts | 284° |
| 2026-05-07 05:30 | -33.48497 | -66.96010 | 39878 ft | 440 kts | 284° |
| 2026-05-07 05:31 | -33.47170 | -67.03180 | 39869 ft | 441 kts | 284° |
| 2026-05-07 05:31 | -33.45836 | -67.10363 | 39867 ft | 442 kts | 284° |
| 2026-05-07 05:32 | -33.44500 | -67.17531 | 39863 ft | 443 kts | 284° |
| 2026-05-07 05:32 | -33.43152 | -67.24743 | 39862 ft | 443 kts | 284° |
| 2026-05-07 05:33 | -33.41807 | -67.31911 | 39860 ft | 444 kts | 284° |
| 2026-05-07 05:33 | -33.40447 | -67.39137 | 39863 ft | 445 kts | 284° |
| 2026-05-07 05:34 | -33.39077 | -67.46387 | 39860 ft | 446 kts | 284° |
| 2026-05-07 05:34 | -33.37703 | -67.53640 | 39865 ft | 448 kts | 284° |
| 2026-05-07 05:35 | -33.36318 | -67.60922 | 39863 ft | 449 kts | 284° |
| 2026-05-07 05:35 | -33.34925 | -67.68223 | 39865 ft | 450 kts | 284° |
| 2026-05-07 05:36 | -33.33526 | -67.75536 | 39863 ft | 451 kts | 284° |
| 2026-05-07 05:36 | -33.32129 | -67.82814 | 39870 ft | 452 kts | 284° |
| 2026-05-07 05:37 | -33.30719 | -67.90147 | 39869 ft | 453 kts | 284° |
| 2026-05-07 05:37 | -33.29302 | -67.97495 | 39873 ft | 453 kts | 284° |
| 2026-05-07 05:38 | -33.27890 | -68.04797 | 39874 ft | 454 kts | 284° |
| 2026-05-07 05:38 | -33.26464 | -68.12143 | 39880 ft | 454 kts | 284° |
| 2026-05-07 05:39 | -33.25033 | -68.19494 | 39885 ft | 454 kts | 284° |
| 2026-05-07 05:39 | -33.23595 | -68.26851 | 39886 ft | 454 kts | 283° |
| 2026-05-07 05:40 | -33.22156 | -68.34195 | 39887 ft | 454 kts | 283° |
| 2026-05-07 05:40 | -33.20718 | -68.41503 | 39885 ft | 454 kts | 283° |
| 2026-05-07 05:41 | -33.19269 | -68.48852 | 39890 ft | 454 kts | 283° |
| 2026-05-07 05:41 | -33.17815 | -68.56200 | 39894 ft | 455 kts | 283° |
| 2026-05-07 05:42 | -33.16355 | -68.63542 | 39890 ft | 455 kts | 283° |
| 2026-05-07 05:42 | -33.14882 | -68.70901 | 39895 ft | 455 kts | 283° |
| 2026-05-07 05:43 | -33.13406 | -68.78256 | 39899 ft | 456 kts | 283° |
| 2026-05-07 05:43 | -33.11934 | -68.85573 | 39904 ft | 456 kts | 283° |
| 2026-05-07 05:44 | -33.10445 | -68.92948 | 39903 ft | 457 kts | 283° |
| 2026-05-07 05:44 | -33.08953 | -69.00322 | 39913 ft | 456 kts | 283° |
| 2026-05-07 05:44 | -33.08214 | -69.03961 | 39800 ft | 447 kts | 283° |
| 2026-05-07 05:45 | -33.07480 | -69.07571 | 39143 ft | 448 kts | 283° |
| 2026-05-07 05:45 | -33.06746 | -69.11178 | 38514 ft | 447 kts | 283° |
| 2026-05-07 05:45 | -33.06010 | -69.14786 | 37751 ft | 447 kts | 282° |
| 2026-05-07 05:45 | -33.05276 | -69.18381 | 37145 ft | 444 kts | 282° |
| 2026-05-07 05:46 | -33.04555 | -69.21900 | 36649 ft | 440 kts | 282° |
| 2026-05-07 05:46 | -33.03832 | -69.25426 | 36167 ft | 436 kts | 282° |
| 2026-05-07 05:46 | -33.03112 | -69.28934 | 35685 ft | 432 kts | 282° |
| 2026-05-07 05:46 | -33.02398 | -69.32411 | 35190 ft | 429 kts | 282° |
| 2026-05-07 05:47 | -33.01690 | -69.35852 | 34710 ft | 426 kts | 281° |
| 2026-05-07 05:47 | -33.00993 | -69.39232 | 34222 ft | 424 kts | 281° |
| 2026-05-07 05:47 | -33.00292 | -69.42633 | 33665 ft | 421 kts | 281° |
| 2026-05-07 05:47 | -32.99594 | -69.46012 | 33151 ft | 417 kts | 281° |
| 2026-05-07 05:48 | -32.98902 | -69.49352 | 32633 ft | 414 kts | 281° |
| 2026-05-07 05:48 | -32.98216 | -69.52662 | 32145 ft | 409 kts | 281° |
| 2026-05-07 05:48 | -32.97536 | -69.55932 | 31678 ft | 405 kts | 281° |
| 2026-05-07 05:48 | -32.96862 | -69.59175 | 31167 ft | 401 kts | 281° |
| 2026-05-07 05:49 | -32.96193 | -69.62389 | 30733 ft | 397 kts | 281° |
| 2026-05-07 05:49 | -32.95754 | -69.64495 | 30382 ft | 395 kts | 282° |
| 2026-05-07 05:49 | -32.95096 | -69.67647 | 29813 ft | 390 kts | 281° |
| 2026-05-07 05:49 | -32.94446 | -69.70760 | 29228 ft | 384 kts | 281° |
| 2026-05-07 05:50 | -32.93807 | -69.73818 | 28715 ft | 377 kts | 282° |
| 2026-05-07 05:50 | -32.92977 | -69.77783 | 28008 ft | 369 kts | 282° |
| 2026-05-07 05:50 | -32.92362 | -69.80712 | 27534 ft | 361 kts | 282° |
| 2026-05-07 05:50 | -32.91960 | -69.82625 | 27204 ft | 357 kts | 282° |
| 2026-05-07 05:51 | -32.91364 | -69.85467 | 26703 ft | 351 kts | 282° |
| 2026-05-07 05:51 | -32.90775 | -69.88265 | 26218 ft | 346 kts | 282° |
| 2026-05-07 05:51 | -32.90195 | -69.91021 | 25760 ft | 341 kts | 282° |
| 2026-05-07 05:51 | -32.89618 | -69.93749 | 25294 ft | 337 kts | 282° |
| 2026-05-07 05:52 | -32.89051 | -69.96438 | 24839 ft | 333 kts | 282° |
| 2026-05-07 05:52 | -32.88490 | -69.99099 | 24376 ft | 329 kts | 282° |
| 2026-05-07 05:52 | -32.88041 | -70.01745 | 23956 ft | 323 kts | 277° |
| 2026-05-07 05:52 | -32.87782 | -70.04411 | 23400 ft | 324 kts | 275° |
| 2026-05-07 05:53 | -32.87578 | -70.07041 | 22918 ft | 322 kts | 275° |
| 2026-05-07 05:53 | -32.87372 | -70.09685 | 22456 ft | 318 kts | 275° |
| 2026-05-07 05:53 | -32.87159 | -70.12304 | 21953 ft | 317 kts | 275° |
| 2026-05-07 05:53 | -32.86937 | -70.14907 | 21512 ft | 315 kts | 275° |
| 2026-05-07 05:54 | -32.86708 | -70.17506 | 21062 ft | 313 kts | 275° |
| 2026-05-07 05:54 | -32.86475 | -70.20074 | 20599 ft | 312 kts | 275° |
| 2026-05-07 05:54 | -32.86243 | -70.22643 | 20098 ft | 313 kts | 275° |
| 2026-05-07 05:54 | -32.86009 | -70.25203 | 19741 ft | 311 kts | 275° |
| 2026-05-07 05:55 | -32.85772 | -70.27776 | 19284 ft | 315 kts | 275° |
| 2026-05-07 05:55 | -32.85533 | -70.30364 | 18836 ft | 313 kts | 276° |
| 2026-05-07 05:55 | -32.85298 | -70.32911 | 18377 ft | 314 kts | 276° |
| 2026-05-07 05:55 | -32.85060 | -70.35486 | 17914 ft | 312 kts | 276° |
| 2026-05-07 05:56 | -32.84820 | -70.38042 | 17493 ft | 309 kts | 276° |
| 2026-05-07 05:56 | -32.84583 | -70.40575 | 17123 ft | 307 kts | 276° |
| 2026-05-07 05:56 | -32.84347 | -70.43107 | 16727 ft | 309 kts | 275° |
| 2026-05-07 05:56 | -32.84108 | -70.45657 | 16348 ft | 311 kts | 276° |
| 2026-05-07 05:57 | -32.83868 | -70.48217 | 15965 ft | 312 kts | 276° |
| 2026-05-07 05:57 | -32.83629 | -70.50757 | 15574 ft | 313 kts | 276° |
| 2026-05-07 05:57 | -32.83386 | -70.53334 | 15180 ft | 313 kts | 276° |
| 2026-05-07 05:57 | -32.83142 | -70.55905 | 14768 ft | 312 kts | 276° |
| 2026-05-07 05:58 | -32.82899 | -70.58463 | 14396 ft | 310 kts | 276° |
| 2026-05-07 05:58 | -32.82658 | -70.61004 | 14010 ft | 309 kts | 276° |
| 2026-05-07 05:58 | -32.82417 | -70.63532 | 13585 ft | 307 kts | 276° |
| 2026-05-07 05:58 | -32.82178 | -70.66044 | 13184 ft | 304 kts | 276° |
| 2026-05-07 05:59 | -32.82163 | -70.68496 | 12787 ft | 294 kts | 258° |
| 2026-05-07 05:59 | -32.82884 | -70.70741 | 12449 ft | 291 kts | 242° |
| 2026-05-07 05:59 | -32.84120 | -70.72626 | 12088 ft | 289 kts | 227° |
| 2026-05-07 05:59 | -32.85594 | -70.74250 | 11726 ft | 288 kts | 224° |
| 2026-05-07 06:00 | -32.87082 | -70.75830 | 11355 ft | 286 kts | 224° |
| 2026-05-07 06:00 | -32.88545 | -70.77412 | 11019 ft | 283 kts | 224° |
| 2026-05-07 06:00 | -32.89993 | -70.78996 | 10658 ft | 282 kts | 224° |
| 2026-05-07 06:00 | -32.91502 | -70.80418 | 10145 ft | 281 kts | 208° |
| 2026-05-07 06:01 | -32.93386 | -70.81035 | 9753 ft | 283 kts | 186° |
| 2026-05-07 06:01 | -32.95360 | -70.80991 | 9373 ft | 282 kts | 179° |
| 2026-05-07 06:01 | -32.97315 | -70.80859 | 9004 ft | 281 kts | 179° |
| 2026-05-07 06:01 | -32.99266 | -70.80738 | 8649 ft | 280 kts | 179° |
| 2026-05-07 06:02 | -33.01209 | -70.80627 | 8288 ft | 278 kts | 179° |
| 2026-05-07 06:02 | -33.03138 | -70.80522 | 7944 ft | 277 kts | 179° |
| 2026-05-07 06:02 | -33.05057 | -70.80420 | 7603 ft | 275 kts | 179° |
| 2026-05-07 06:02 | -33.06945 | -70.80319 | 7265 ft | 274 kts | 178° |
| 2026-05-07 06:03 | -33.08852 | -70.80216 | 6936 ft | 273 kts | 178° |
| 2026-05-07 06:03 | -33.10751 | -70.80115 | 6574 ft | 273 kts | 178° |
| 2026-05-07 06:03 | -33.12650 | -70.80013 | 6232 ft | 272 kts | 178° |
| 2026-05-07 06:03 | -33.14505 | -70.79913 | 5874 ft | 259 kts | 178° |
| 2026-05-07 06:04 | -33.16242 | -70.79820 | 5547 ft | 241 kts | 178° |
| 2026-05-07 06:04 | -33.17844 | -70.79734 | 5312 ft | 220 kts | 177° |
| 2026-05-07 06:04 | -33.19317 | -70.79655 | 5041 ft | 202 kts | 177° |
| 2026-05-07 06:04 | -33.20666 | -70.79582 | 4752 ft | 186 kts | 177° |
| 2026-05-07 06:05 | -33.21899 | -70.79516 | 4524 ft | 169 kts | 177° |
| 2026-05-07 06:05 | -33.23019 | -70.79456 | 4332 ft | 154 kts | 177° |
| 2026-05-07 06:05 | -33.24060 | -70.79400 | 4130 ft | 146 kts | 177° |
| 2026-05-07 06:05 | -33.25077 | -70.79345 | 3972 ft | 147 kts | 177° |
| 2026-05-07 06:06 | -33.26082 | -70.79291 | 3806 ft | 146 kts | 177° |
| 2026-05-07 06:06 | -33.27096 | -70.79237 | 3612 ft | 145 kts | 177° |
| 2026-05-07 06:06 | -33.28101 | -70.79184 | 3395 ft | 144 kts | 177° |
| 2026-05-07 06:06 | -33.29103 | -70.79128 | 3208 ft | 144 kts | 177° |
| 2026-05-07 06:07 | -33.30094 | -70.79075 | 3103 ft | 143 kts | 177° |
| 2026-05-07 06:07 | -33.31100 | -70.79022 | 2887 ft | 144 kts | 176° |
| 2026-05-07 06:07 | -33.32098 | -70.78968 | 2691 ft | 143 kts | 176° |
| 2026-05-07 06:07 | -33.33093 | -70.78914 | 2487 ft | 143 kts | 176° |
| 2026-05-07 06:08 | -33.34070 | -70.78861 | 2295 ft | 142 kts | 176° |
| 2026-05-07 06:08 | -33.35065 | -70.78807 | 2099 ft | 140 kts | 176° |
| 2026-05-07 06:08 | -33.36020 | -70.78750 | 1909 ft | 138 kts | 176° |
| 2026-05-07 06:08 | -33.36976 | -70.78708 | 1728 ft | 138 kts | 176° |
| 2026-05-07 06:09 | -33.37931 | -70.78660 | 1583 ft | 134 kts | 176° |
| 2026-05-07 06:09 | -33.38756 | -70.78610 | 1568 ft | 98 kts | 177° |
| 2026-05-07 06:09 | -33.39247 | -70.78583 | 1569 ft | 35 kts | 177° |
| 2026-05-07 06:09 | -33.39449 | -70.78582 | 1568 ft | 26 kts | 188° |
| 2026-05-07 06:10 | -33.39570 | -70.78624 | 1568 ft | 7 kts | 202° |
| 2026-05-07 06:10 | -33.39612 | -70.78647 | 1568 ft | 7 kts | 207° |
| 2026-05-07 06:10 | -33.39652 | -70.78674 | 1569 ft | 7 kts | 209° |
| 2026-05-07 06:10 | -33.39693 | -70.78699 | 1569 ft | 7 kts | 205° |
| 2026-05-07 06:11 | -33.39729 | -70.78732 | 1569 ft | 7 kts | 235° |
| 2026-05-07 06:11 | -33.39752 | -70.78779 | 1569 ft | 7 kts | 241° |
| 2026-05-07 06:11 | -33.39755 | -70.78834 | 1569 ft | 7 kts | 280° |
| 2026-05-07 06:11 | -33.39728 | -70.78878 | 1569 ft | 7 kts | 327° |
| 2026-05-07 06:12 | -33.39682 | -70.78888 | 1569 ft | 7 kts | 359° |
| 2026-05-07 06:12 | -33.39627 | -70.78885 | 1569 ft | 9 kts | 0° |
| 2026-05-07 06:12 | -33.39562 | -70.78886 | 1569 ft | 10 kts | 358° |
| 2026-05-07 06:12 | -33.39501 | -70.78923 | 1569 ft | 11 kts | 298° |
| 2026-05-07 06:13 | -33.39493 | -70.79015 | 1569 ft | 12 kts | 271° |
| 2026-05-07 06:13 | -33.39494 | -70.79086 | 1569 ft | 8 kts | 266° |
| 2026-05-07 06:13 | -33.39497 | -70.79151 | 1569 ft | 8 kts | 267° |
| 2026-05-07 06:13 | -33.39501 | -70.79206 | 1569 ft | 2 kts | 249° |
| 2026-05-07 06:14 | -33.39512 | -70.79224 | 1569 ft | 3 kts | 229° |
| 2026-05-07 06:14 | -33.39534 | -70.79225 | 1569 ft | 4 kts | 169° |
| 2026-05-07 06:14 | -33.39560 | -70.79220 | 1569 ft | 4 kts | 178° |
| 2026-05-07 06:14 | -33.39581 | -70.79219 | 1569 ft | 1 kts | 177° |
| 2026-05-07 06:15 | -33.39584 | -70.79219 | 1569 ft | 0 kts | 178° |